Time;durP1;ratioP1;P1;durP2;ratioP2;P2;SDS_P1;SDS_P2;PMS_P1;PMS_P2;Temp;Humidity;BMP_temperature;BMP_pressure;BME280_temperature;BME280_humidity;BME280_pressure;Samples;Min_cycle;Max_cycle;Signal;HPM_P1;HPM_P2
2022/04/28 00:02:14;;;;;;;17.30;10.38;;;;;;;;;;5092440;28;20020;-49
2022/04/28 00:04:39;;;;;;;16.98;9.70;;;;;;;;;;5092245;28;20081;-48
2022/04/28 00:07:05;;;;;;;18.08;10.73;;;;;;;;;;5092475;28;20020;-48
2022/04/28 00:09:30;;;;;;;17.05;11.25;;;;;;;;;;5092418;28;20093;-46
2022/04/28 00:11:56;;;;;;;18.10;11.75;;;;;;;;;;5092163;28;20032;-48
2022/04/28 00:14:21;;;;;;;16.50;10.77;;;;;;;;;;5092166;28;20034;-48
2022/04/28 00:16:47;;;;;;;16.42;11.13;;;;;;;;;;5092167;28;20418;-49
2022/04/28 00:19:13;;;;;;;16.35;11.05;;;;;;;;;;5094064;28;20503;-46
2022/04/28 00:21:38;;;;;;;17.40;11.02;;;;;;;;;;5096145;28;20027;-50
2022/04/28 00:24:07;;;;;;;21.95;11.85;;;;;;;;;;5096066;28;20059;-48
2022/04/28 00:26:33;;;;;;;17.40;10.82;;;;;;;;;;5096026;28;20028;-50
2022/04/28 00:28:58;;;;;;;18.60;11.70;;;;;;;;;;5095671;28;20031;-51
2022/04/28 00:31:23;;;;;;;18.52;11.57;;;;;;;;;;5095681;28;20024;-50
2022/04/28 00:33:49;;;;;;;17.42;11.50;;;;;;;;;;5095585;28;20064;-47
2022/04/28 00:36:15;;;;;;;18.15;11.63;;;;;;;;;;5095562;28;20028;-50
2022/04/28 00:38:40;;;;;;;17.95;10.90;;;;;;;;;;5095757;28;20120;-48
2022/04/28 00:41:06;;;;;;;17.67;10.85;;;;;;;;;;5095528;28;20522;-48
2022/04/28 00:43:33;;;;;;;16.60;10.70;;;;;;;;;;5095414;28;20376;-46
2022/04/28 00:45:59;;;;;;;16.13;10.57;;;;;;;;;;5095472;28;20055;-48
2022/04/28 00:51:12;;;;;;;17.42;9.85;;;;;;;;;;5095220;28;20055;-52
2022/04/28 00:53:49;;;;;;;13.32;9.20;;;;;;;;;;5095614;28;20020;-48
2022/04/28 00:56:15;;;;;;;15.10;10.07;;;;;;;;;;5095218;28;20045;-46
2022/04/28 00:58:41;;;;;;;12.90;9.60;;;;;;;;;;5095162;28;20031;-48
2022/04/28 01:01:07;;;;;;;16.42;10.23;;;;;;;;;;5077337;28;20028;-47
2022/04/28 01:03:33;;;;;;;13.98;8.60;;;;;;;;;;5095237;28;20075;-47
2022/04/28 01:05:58;;;;;;;16.80;9.38;;;;;;;;;;5095263;28;20024;-50
2022/04/28 01:08:24;;;;;;;16.33;9.48;;;;;;;;;;5094920;28;20379;-51
2022/04/28 01:10:52;;;;;;;11.52;8.82;;;;;;;;;;5095151;28;20077;-49
2022/04/28 01:13:17;;;;;;;13.40;8.57;;;;;;;;;;5094825;28;20540;-48
2022/04/28 01:15:47;;;;;;;11.25;7.97;;;;;;;;;;5095071;28;20028;-49
2022/04/28 01:18:13;;;;;;;11.75;8.43;;;;;;;;;;5094849;28;20024;-50
2022/04/28 01:20:40;;;;;;;11.40;7.68;;;;;;;;;;5094729;28;20028;-47
2022/04/28 01:23:06;;;;;;;13.27;8.30;;;;;;;;;;5076649;28;20035;-48
2022/04/28 01:25:31;;;;;;;13.85;8.13;;;;;;;;;;5094620;28;20414;-49
2022/04/28 01:27:57;;;;;;;12.20;8.10;;;;;;;;;;5094645;28;20020;-47
2022/04/28 01:30:23;;;;;;;14.73;7.93;;;;;;;;;;5093819;28;20380;-53
2022/04/28 01:32:48;;;;;;;13.05;9.30;;;;;;;;;;5076751;28;20035;-48
2022/04/28 01:35:15;;;;;;;12.93;9.05;;;;;;;;;;5076406;28;20492;-47
2022/04/28 01:37:41;;;;;;;13.18;8.02;;;;;;;;;;5076368;28;20031;-49
2022/04/28 01:40:11;;;;;;;12.07;8.77;;;;;;;;;;5094372;28;20042;-50
2022/04/28 01:42:47;;;;;;;15.10;8.90;;;;;;;;;;5094218;28;20468;-50
2022/04/28 01:45:13;;;;;;;13.65;8.95;;;;;;;;;;5094235;28;20075;-52
2022/04/28 01:47:39;;;;;;;14.13;9.45;;;;;;;;;;5094534;28;20375;-49
2022/04/28 01:50:06;;;;;;;14.25;9.50;;;;;;;;;;5093938;28;20044;-47
2022/04/28 01:55:16;;;;;;;18.88;10.90;;;;;;;;;;5094393;28;20035;-50
2022/04/28 01:57:43;;;;;;;14.07;9.35;;;;;;;;;;5094017;28;20380;-47
2022/04/28 02:00:09;;;;;;;15.05;9.35;;;;;;;;;;5093943;28;20402;-54
2022/04/28 02:02:35;;;;;;;14.63;9.68;;;;;;;;;;5094102;28;20112;-48
2022/04/28 02:05:04;;;;;;;17.10;9.95;;;;;;;;;;5093796;28;20459;-49
2022/04/28 02:07:29;;;;;;;14.20;9.82;;;;;;;;;;5094165;28;20379;-50
2022/04/28 02:09:56;;;;;;;13.48;9.75;;;;;;;;;;5094121;28;20100;-49
2022/04/28 02:12:22;;;;;;;15.07;9.93;;;;;;;;;;5075632;28;20434;-52
2022/04/28 02:14:47;;;;;;;14.85;10.30;;;;;;;;;;5093997;28;20024;-49
2022/04/28 02:17:23;;;;;;;15.93;9.32;;;;;;;;;;5093555;28;20031;-48
2022/04/28 02:19:49;;;;;;;14.13;9.50;;;;;;;;;;5093953;28;20187;-50
2022/04/28 02:22:15;;;;;;;13.57;9.30;;;;;;;;;;5093775;28;20103;-49
2022/04/28 02:24:40;;;;;;;16.17;9.70;;;;;;;;;;5093529;28;20099;-48
2022/04/28 02:27:06;;;;;;;16.17;9.50;;;;;;;;;;5093794;28;20020;-49
2022/04/28 02:29:32;;;;;;;15.68;10.02;;;;;;;;;;5093425;28;20024;-51
2022/04/28 02:31:58;;;;;;;15.50;9.75;;;;;;;;;;5093442;28;20031;-49
2022/04/28 02:34:23;;;;;;;19.38;10.32;;;;;;;;;;5093640;28;20028;-45
2022/04/28 02:36:49;;;;;;;13.15;9.50;;;;;;;;;;5093593;28;20451;-52
2022/04/28 02:39:17;;;;;;;15.02;9.30;;;;;;;;;;5093224;28;20027;-51
2022/04/28 02:41:42;;;;;;;15.32;8.77;;;;;;;;;;5075454;28;20020;-48
2022/04/28 02:44:08;;;;;;;12.15;8.82;;;;;;;;;;5093165;28;20031;-50
2022/04/28 02:46:33;;;;;;;13.07;8.88;;;;;;;;;;5093784;28;20107;-47
2022/04/28 02:48:59;;;;;;;13.35;8.40;;;;;;;;;;5093387;28;20027;-50
2022/04/28 02:51:25;;;;;;;14.40;8.57;;;;;;;;;;5092902;28;20411;-51
2022/04/28 02:53:50;;;;;;;15.32;8.98;;;;;;;;;;5093101;28;20506;-52
2022/04/28 02:56:16;;;;;;;12.13;8.40;;;;;;;;;;5092978;28;20052;-48
2022/04/28 02:58:41;;;;;;;14.32;8.93;;;;;;;;;;5093501;28;20028;-48
2022/04/28 03:01:07;;;;;;;12.70;8.73;;;;;;;;;;5093230;28;20357;-50
2022/04/28 03:03:32;;;;;;;13.32;8.73;;;;;;;;;;5092859;28;20544;-53
2022/04/28 03:11:27;;;;;;;16.52;9.77;;;;;;;;;;5092848;28;20025;-51
2022/04/28 03:13:54;;;;;;;11.02;8.30;;;;;;;;;;5093026;28;20044;-52
2022/04/28 03:16:19;;;;;;;13.35;9.15;;;;;;;;;;5092735;28;20024;-52
2022/04/28 03:18:45;;;;;;;12.70;8.88;;;;;;;;;;5092923;28;20031;-52
2022/04/28 03:21:12;;;;;;;13.38;9.25;;;;;;;;;;5092697;28;20375;-48
2022/04/28 03:23:37;;;;;;;15.88;9.27;;;;;;;;;;5092500;28;20486;-51
2022/04/28 03:26:06;;;;;;;15.20;9.32;;;;;;;;;;5092860;28;20088;-51
2022/04/28 03:28:34;;;;;;;14.07;8.50;;;;;;;;;;5092881;28;20020;-54
2022/04/28 03:31:01;;;;;;;13.63;8.70;;;;;;;;;;5092909;28;20027;-49
2022/04/28 03:33:27;;;;;;;13.88;8.80;;;;;;;;;;5092503;28;20051;-48
2022/04/28 03:35:52;;;;;;;14.02;8.73;;;;;;;;;;5092845;28;20051;-49
2022/04/28 03:38:18;;;;;;;14.25;8.73;;;;;;;;;;5092395;28;20435;-48
2022/04/28 03:40:43;;;;;;;13.38;9.07;;;;;;;;;;5092434;28;20039;-49
2022/04/28 03:43:09;;;;;;;16.08;8.38;;;;;;;;;;5092619;28;20036;-46
2022/04/28 03:45:36;;;;;;;15.45;8.80;;;;;;;;;;5092375;28;20471;-50
2022/04/28 03:48:03;;;;;;;15.05;9.13;;;;;;;;;;5092720;28;20048;-49
2022/04/28 03:50:30;;;;;;;14.02;8.88;;;;;;;;;;5092165;28;20050;-48
2022/04/28 03:52:58;;;;;;;16.75;9.02;;;;;;;;;;5092603;28;20058;-49
2022/04/28 03:55:25;;;;;;;14.32;9.13;;;;;;;;;;5096427;28;20024;-50
2022/04/28 03:57:51;;;;;;;12.70;8.15;;;;;;;;;;5096643;28;20020;-48
2022/04/28 04:00:17;;;;;;;14.63;8.93;;;;;;;;;;5096509;28;20032;-48
2022/04/28 04:02:42;;;;;;;12.85;8.50;;;;;;;;;;5096190;28;20028;-49
2022/04/28 04:05:09;;;;;;;13.68;8.68;;;;;;;;;;5096472;28;20069;-52
2022/04/28 04:07:38;;;;;;;14.05;8.52;;;;;;;;;;5096494;28;20028;-49
2022/04/28 04:10:04;;;;;;;20.30;13.77;;;;;;;;;;5096060;28;20111;-47
2022/04/28 04:12:30;;;;;;;17.85;12.85;;;;;;;;;;5096335;28;20425;-49
2022/04/28 04:14:55;;;;;;;15.80;11.05;;;;;;;;;;5095945;28;20020;-46
2022/04/28 04:17:21;;;;;;;21.88;13.60;;;;;;;;;;5077754;28;20024;-48
2022/04/28 04:19:46;;;;;;;16.77;11.40;;;;;;;;;;5096150;28;20028;-48
2022/04/28 04:22:12;;;;;;;17.92;12.52;;;;;;;;;;5078056;28;20028;-49
2022/04/28 04:24:37;;;;;;;18.95;13.05;;;;;;;;;;5095948;28;20383;-47
2022/04/28 04:27:03;;;;;;;21.90;13.18;;;;;;;;;;5095697;28;20028;-53
2022/04/28 04:29:29;;;;;;;20.60;13.70;;;;;;;;;;5095999;28;20024;-52
2022/04/28 04:34:38;;;;;;;26.58;17.52;;;;;;;;;;5095920;28;20031;-51
2022/04/28 04:37:03;;;;;;;20.67;14.07;;;;;;;;;;5096177;28;20024;-50
2022/04/28 04:39:29;;;;;;;21.75;14.60;;;;;;;;;;5095833;28;20377;-49
2022/04/28 04:41:54;;;;;;;22.90;14.80;;;;;;;;;;5095468;28;20028;-48
2022/04/28 04:44:19;;;;;;;21.15;13.73;;;;;;;;;;5095426;28;20039;-47
2022/04/28 04:46:45;;;;;;;20.55;13.95;;;;;;;;;;5095736;28;20016;-48
2022/04/28 04:49:10;;;;;;;22.42;13.63;;;;;;;;;;5095397;28;20028;-44
2022/04/28 04:51:36;;;;;;;20.42;12.18;;;;;;;;;;5095336;28;20486;-45
2022/04/28 04:54:01;;;;;;;19.52;12.38;;;;;;;;;;5077179;28;20161;-49
2022/04/28 04:56:27;;;;;;;23.58;12.00;;;;;;;;;;5095226;28;20047;-50
2022/04/28 04:58:52;;;;;;;22.70;13.57;;;;;;;;;;5095224;28;20032;-52
2022/04/28 05:01:17;;;;;;;22.48;14.98;;;;;;;;;;5095407;28;20028;-44
2022/04/28 05:03:43;;;;;;;18.83;12.65;;;;;;;;;;5095262;28;20081;-48
2022/04/28 05:06:08;;;;;;;22.77;13.27;;;;;;;;;;5093894;28;20456;-52
2022/04/28 05:08:34;;;;;;;17.98;11.63;;;;;;;;;;5095250;28;20064;-53
2022/04/28 05:10:59;;;;;;;17.73;11.63;;;;;;;;;;5094944;28;20024;-53
2022/04/28 05:13:25;;;;;;;18.30;11.57;;;;;;;;;;5094962;28;20024;-53
2022/04/28 05:15:50;;;;;;;21.63;13.25;;;;;;;;;;5095130;28;20035;-48
2022/04/28 05:18:16;;;;;;;19.48;12.00;;;;;;;;;;5094820;28;20028;-49
2022/04/28 05:20:41;;;;;;;18.75;11.77;;;;;;;;;;5094960;28;20081;-53
2022/04/28 05:23:06;;;;;;;19.65;12.52;;;;;;;;;;5094651;28;20487;-50
2022/04/28 05:25:33;;;;;;;17.42;10.77;;;;;;;;;;5094765;28;20066;-49
2022/04/28 05:27:59;;;;;;;14.98;10.27;;;;;;;;;;5094914;28;20055;-47
2022/04/28 05:30:24;;;;;;;13.65;9.50;;;;;;;;;;5094864;28;20048;-51
2022/04/28 05:32:50;;;;;;;17.95;10.57;;;;;;;;;;5094534;28;20034;-54
2022/04/28 05:35:15;;;;;;;19.13;11.48;;;;;;;;;;5094451;28;20472;-48
2022/04/28 05:37:41;;;;;;;14.25;10.23;;;;;;;;;;5094605;28;20031;-46
2022/04/28 05:40:08;;;;;;;16.08;10.18;;;;;;;;;;5076138;28;20024;-50
2022/04/28 05:48:03;;;;;;;18.35;10.10;;;;;;;;;;5094256;28;20501;-45
2022/04/28 05:50:28;;;;;;;16.45;10.13;;;;;;;;;;5093897;28;20044;-47
2022/04/28 05:52:54;;;;;;;16.77;10.07;;;;;;;;;;5092562;28;20042;-41
2022/04/28 05:55:19;;;;;;;17.33;10.27;;;;;;;;;;5092185;28;20073;-41
2022/04/28 05:57:45;;;;;;;15.00;9.13;;;;;;;;;;5092326;28;20039;-43
2022/04/28 06:00:11;;;;;;;17.17;9.50;;;;;;;;;;5090539;28;20024;-48
2022/04/28 06:02:37;;;;;;;14.02;8.98;;;;;;;;;;5093036;28;20035;-43
2022/04/28 06:05:03;;;;;;;12.20;9.25;;;;;;;;;;5092758;28;20028;-49
2022/04/28 06:07:29;;;;;;;18.83;11.40;;;;;;;;;;5092262;28;20048;-48
2022/04/28 06:09:54;;;;;;;14.73;10.43;;;;;;;;;;5094038;28;20067;-40
2022/04/28 06:12:20;;;;;;;16.02;10.25;;;;;;;;;;5093994;28;20413;-51
2022/04/28 06:14:48;;;;;;;15.85;9.50;;;;;;;;;;5093691;28;20024;-49
2022/04/28 06:17:13;;;;;;;17.05;10.52;;;;;;;;;;5093649;28;20032;-45
2022/04/28 06:19:39;;;;;;;13.30;9.43;;;;;;;;;;5093514;28;20112;-45
2022/04/28 06:22:04;;;;;;;14.73;9.95;;;;;;;;;;5075069;28;20020;-45
2022/04/28 06:24:30;;;;;;;16.15;10.10;;;;;;;;;;5092259;28;20542;-50
2022/04/28 06:26:55;;;;;;;16.65;10.63;;;;;;;;;;5093225;28;20088;-45
2022/04/28 06:29:20;;;;;;;16.73;10.50;;;;;;;;;;5092573;28;20028;-42
2022/04/28 06:31:46;;;;;;;14.70;9.13;;;;;;;;;;5093594;28;20020;-43
2022/04/28 06:34:11;;;;;;;14.30;9.63;;;;;;;;;;5093548;28;20072;-46
2022/04/28 06:36:37;;;;;;;14.48;9.40;;;;;;;;;;5090437;28;20038;-43
2022/04/28 06:39:03;;;;;;;15.93;10.48;;;;;;;;;;5090725;28;20406;-41
2022/04/28 06:41:29;;;;;;;16.30;10.32;;;;;;;;;;5093434;28;20054;-40
2022/04/28 06:43:55;;;;;;;16.50;9.98;;;;;;;;;;5093031;28;20089;-45
2022/04/28 06:46:21;;;;;;;15.27;9.43;;;;;;;;;;5092717;28;20069;-41
2022/04/28 06:48:47;;;;;;;14.10;9.50;;;;;;;;;;5093317;28;20028;-43
2022/04/28 06:51:13;;;;;;;13.05;9.07;;;;;;;;;;5092884;28;20449;-43
2022/04/28 06:53:38;;;;;;;14.48;9.65;;;;;;;;;;5093264;28;20028;-40
2022/04/28 06:56:06;;;;;;;14.80;9.40;;;;;;;;;;5093007;28;20020;-41
2022/04/28 06:58:31;;;;;;;13.40;9.45;;;;;;;;;;5092675;28;20035;-40
2022/04/28 07:00:57;;;;;;;14.85;9.82;;;;;;;;;;5092755;28;20024;-41
2022/04/28 07:03:23;;;;;;;13.88;9.38;;;;;;;;;;5093010;28;20059;-43
2022/04/28 07:05:49;;;;;;;13.68;9.40;;;;;;;;;;5092002;28;20460;-44
2022/04/28 07:08:14;;;;;;;16.55;9.55;;;;;;;;;;5092464;28;20016;-41
2022/04/28 07:10:40;;;;;;;12.82;9.43;;;;;;;;;;5092672;28;20024;-40
2022/04/28 07:13:06;;;;;;;14.07;9.18;;;;;;;;;;5092629;28;20105;-52
2022/04/28 07:15:35;;;;;;;13.10;8.98;;;;;;;;;;5093055;28;20024;-53
2022/04/28 07:18:03;;;;;;;14.80;9.10;;;;;;;;;;5092670;28;20024;-53
2022/04/28 07:20:30;;;;;;;15.32;9.43;;;;;;;;;;5092884;28;20089;-49
2022/04/28 07:22:55;;;;;;;12.52;8.40;;;;;;;;;;5092853;28;20019;-49
2022/04/28 07:25:21;;;;;;;17.10;9.13;;;;;;;;;;5092826;28;20482;-46
2022/04/28 07:27:46;;;;;;;12.43;8.93;;;;;;;;;;5092321;28;20024;-45
2022/04/28 07:30:12;;;;;;;15.02;8.80;;;;;;;;;;5092322;28;20383;-42
2022/04/28 07:32:37;;;;;;;19.85;9.10;;;;;;;;;;5092447;28;20020;-46
2022/04/28 07:35:03;;;;;;;13.02;8.00;;;;;;;;;;5092444;28;20035;-44
2022/04/28 07:37:28;;;;;;;13.13;8.68;;;;;;;;;;5092422;28;20379;-45
2022/04/28 07:39:54;;;;;;;17.02;11.82;;;;;;;;;;5092610;28;20051;-44
2022/04/28 07:42:19;;;;;;;13.85;8.93;;;;;;;;;;5092374;28;20430;-43
2022/04/28 07:44:45;;;;;;;13.15;8.13;;;;;;;;;;5091692;28;20055;-42
2022/04/28 07:47:10;;;;;;;15.60;8.50;;;;;;;;;;5091801;28;20027;-42
2022/04/28 07:49:36;;;;;;;13.07;8.77;;;;;;;;;;5092350;28;20063;-47
2022/04/28 07:52:02;;;;;;;15.63;7.10;;;;;;;;;;5092731;28;20459;-50
2022/04/28 07:54:27;;;;;;;18.80;8.35;;;;;;;;;;5092253;28;20020;-41
2022/04/28 07:56:53;;;;;;;10.88;8.07;;;;;;;;;;5092416;28;20499;-42
2022/04/28 07:59:18;;;;;;;12.90;7.60;;;;;;;;;;5073695;28;20032;-41
2022/04/28 08:01:43;;;;;;;13.93;7.65;;;;;;;;;;5092247;28;20028;-48
2022/04/28 08:04:09;;;;;;;11.48;7.60;;;;;;;;;;5092359;28;20060;-48
2022/04/28 08:06:34;;;;;;;11.80;7.97;;;;;;;;;;5092402;28;20024;-47
2022/04/28 08:09:00;;;;;;;11.93;7.72;;;;;;;;;;5092390;28;20020;-52
2022/04/28 08:11:25;;;;;;;9.95;7.30;;;;;;;;;;5091514;28;20395;-43
2022/04/28 08:13:51;;;;;;;11.32;6.90;;;;;;;;;;5090790;28;20043;-47
2022/04/28 08:16:16;;;;;;;11.60;7.75;;;;;;;;;;5090780;28;20013;-49
2022/04/28 08:18:42;;;;;;;13.27;7.13;;;;;;;;;;5090739;28;20429;-50
2022/04/28 08:21:08;;;;;;;14.02;8.05;;;;;;;;;;5090530;28;20036;-49
2022/04/28 08:23:36;;;;;;;12.18;8.20;;;;;;;;;;5090363;28;20467;-43
2022/04/28 08:26:02;;;;;;;10.35;7.53;;;;;;;;;;5090773;28;20093;-45
2022/04/28 08:28:28;;;;;;;12.35;7.88;;;;;;;;;;5090675;28;20107;-51
2022/04/28 08:30:53;;;;;;;11.10;6.90;;;;;;;;;;5090375;28;20127;-52
2022/04/28 08:33:19;;;;;;;12.35;7.22;;;;;;;;;;5090414;28;20116;-50
2022/04/28 08:35:44;;;;;;;12.23;7.15;;;;;;;;;;5090434;28;20047;-50
2022/04/28 08:38:09;;;;;;;10.57;7.03;;;;;;;;;;5090561;28;20028;-51
2022/04/28 08:40:35;;;;;;;11.02;7.10;;;;;;;;;;5092842;28;20031;-44
2022/04/28 08:43:03;;;;;;;12.32;7.85;;;;;;;;;;5093960;28;20652;-48
2022/04/28 08:45:31;;;;;;;10.32;7.10;;;;;;;;;;5094017;28;20024;-49
2022/04/28 08:47:58;;;;;;;9.13;5.82;;;;;;;;;;5094042;28;20052;-49
2022/04/28 08:50:24;;;;;;;10.20;6.75;;;;;;;;;;5093539;28;20411;-52
2022/04/28 08:52:52;;;;;;;9.45;6.55;;;;;;;;;;5093701;28;20032;-49
2022/04/28 08:55:19;;;;;;;8.88;6.22;;;;;;;;;;5093638;28;20547;-52
2022/04/28 08:57:45;;;;;;;7.70;6.40;;;;;;;;;;5093952;28;20036;-46
2022/04/28 09:00:11;;;;;;;10.55;6.72;;;;;;;;;;5093513;28;20024;-49
2022/04/28 09:02:37;;;;;;;10.35;6.28;;;;;;;;;;5093353;28;20472;-48
2022/04/28 09:05:07;;;;;;;8.45;6.38;;;;;;;;;;5093813;28;20028;-49
2022/04/28 09:07:39;;;;;;;;;;;;;;;;;;5093799;28;20039;-48
2022/04/28 09:10:43;;;;;;;13.73;6.32;;;;;;;;;;5093423;28;20394;-43
2022/04/28 09:15:54;;;;;;;10.68;6.20;;;;;;;;;;5050855;28;20095;-47
2022/04/28 09:18:21;;;;;;;8.77;5.72;;;;;;;;;;5075733;28;20075;-49
2022/04/28 09:20:48;;;;;;;6.95;5.35;;;;;;;;;;5093241;28;20434;-46
2022/04/28 09:23:14;;;;;;;6.75;5.30;;;;;;;;;;5093296;28;20036;-51
2022/04/28 09:25:40;;;;;;;8.05;5.90;;;;;;;;;;5075057;28;20107;-48
2022/04/28 09:28:09;;;;;;;6.90;5.22;;;;;;;;;;5093213;28;20035;-48
2022/04/28 09:30:48;;;;;;;6.70;5.85;;;;;;;;;;5093258;28;20016;-45
2022/04/28 09:33:14;;;;;;;8.95;5.85;;;;;;;;;;5093071;28;20043;-46
2022/04/28 09:35:51;;;;;;;10.20;5.60;;;;;;;;;;5092892;28;20031;-48
2022/04/28 09:38:17;;;;;;;6.90;5.75;;;;;;;;;;5093071;28;20035;-43
2022/04/28 09:43:33;;;;;;;10.35;6.32;;;;;;;;;;5063347;28;20399;-50
2022/04/28 09:46:01;;;;;;;7.75;5.75;;;;;;;;;;5092599;28;20028;-48
2022/04/28 09:48:30;;;;;;;10.23;6.05;;;;;;;;;;5092486;28;20472;-53
2022/04/28 09:51:09;;;;;;;8.90;6.28;;;;;;;;;;5091721;28;20480;-53
2022/04/28 09:53:36;;;;;;;8.45;5.90;;;;;;;;;;5092607;28;20036;-50
2022/04/28 09:56:04;;;;;;;7.40;5.80;;;;;;;;;;5092414;28;20464;-51
2022/04/28 09:58:29;;;;;;;6.90;5.72;;;;;;;;;;5092479;28;20059;-53
2022/04/28 10:01:03;;;;;;;9.27;6.43;;;;;;;;;;5092396;28;20054;-46
2022/04/28 10:03:35;;;;;;;8.73;6.65;;;;;;;;;;5054225;28;20056;-52
2022/04/28 10:06:02;;;;;;;6.47;5.57;;;;;;;;;;5072390;28;20568;-52
2022/04/28 10:08:32;;;;;;;7.00;6.00;;;;;;;;;;5072354;28;20082;-50
2022/04/28 10:10:59;;;;;;;;;;;;;;;;;;5072653;28;20032;-53
2022/04/28 10:13:28;;;;;;;8.93;6.35;;;;;;;;;;5072159;28;20313;-44
2022/04/28 10:16:11;;;;;;;10.30;6.93;;;;;;;;;;5071925;28;20119;-47
2022/04/28 10:18:44;;;;;;;8.25;6.38;;;;;;;;;;5071759;28;20545;-52
2022/04/28 10:21:14;;;;;;;9.90;6.78;;;;;;;;;;5072099;28;20036;-49
2022/04/28 10:35:07;;;;;;;8.80;6.18;;;;;;;;;;5071643;28;20070;-51
2022/04/28 10:37:35;;;;;;;7.57;6.05;;;;;;;;;;5071908;28;20444;-54
2022/04/28 10:40:03;;;;;;;8.25;6.68;;;;;;;;;;5071672;28;20099;-48
2022/04/28 10:42:29;;;;;;;8.90;6.60;;;;;;;;;;5070070;28;20028;-49
2022/04/28 10:44:56;;;;;;;7.22;5.88;;;;;;;;;;5071292;28;20055;-41
2022/04/28 10:47:36;;;;;;;10.23;6.65;;;;;;;;;;5071491;28;20040;-41
2022/04/28 10:50:03;;;;;;;8.00;5.90;;;;;;;;;;5071264;28;20037;-43
2022/04/28 10:52:29;;;;;;;7.93;5.50;;;;;;;;;;5071441;28;20067;-45
2022/04/28 10:55:00;;;;;;;7.45;6.03;;;;;;;;;;5070746;28;20468;-42
2022/04/28 10:57:32;;;;;;;8.18;5.90;;;;;;;;;;5071213;28;20472;-49
2022/04/28 11:00:00;;;;;;;7.22;5.25;;;;;;;;;;5071296;28;20059;-49
2022/04/28 11:02:26;;;;;;;7.70;6.15;;;;;;;;;;5070666;28;20480;-51
2022/04/28 11:05:01;;;;;;;7.93;6.20;;;;;;;;;;5070490;28;20064;-48
2022/04/28 11:07:28;;;;;;;9.27;5.93;;;;;;;;;;5070928;28;20024;-47
2022/04/28 11:09:59;;;;;;;8.85;6.10;;;;;;;;;;5071188;28;20036;-46
2022/04/28 11:12:33;;;;;;;10.15;5.93;;;;;;;;;;5070998;28;20028;-52
2022/04/28 11:15:06;;;;;;;9.32;5.75;;;;;;;;;;5071002;28;20024;-50
2022/04/28 11:17:35;;;;;;;8.05;6.45;;;;;;;;;;5071066;28;20064;-49
2022/04/28 11:20:07;;;;;;;8.50;6.70;;;;;;;;;;5070636;28;20514;-49
2022/04/28 11:22:33;;;;;;;9.43;6.72;;;;;;;;;;5070627;28;20396;-50
2022/04/28 11:24:59;;;;;;;9.02;6.38;;;;;;;;;;5070777;28;20021;-51
2022/04/28 11:27:29;;;;;;;9.63;6.47;;;;;;;;;;5070900;28;20447;-46
2022/04/28 11:29:57;;;;;;;8.23;6.07;;;;;;;;;;5070640;28;20366;-51
2022/04/28 11:32:22;;;;;;;6.72;6.00;;;;;;;;;;5070315;28;20036;-52
2022/04/28 11:34:50;;;;;;;8.85;5.97;;;;;;;;;;5070830;28;20372;-51
2022/04/28 11:37:22;;;;;;;10.32;6.70;;;;;;;;;;5070438;28;20036;-52
2022/04/28 11:39:51;;;;;;;7.30;5.65;;;;;;;;;;5070844;28;20032;-53
2022/04/28 11:42:18;;;;;;;11.43;6.38;;;;;;;;;;5070783;28;20036;-49
2022/04/28 11:44:52;;;;;;;7.63;5.78;;;;;;;;;;5070474;28;20047;-51
2022/04/28 11:47:23;;;;;;;9.10;6.10;;;;;;;;;;5070868;28;20111;-44
2022/04/28 11:49:51;;;;;;;7.80;6.18;;;;;;;;;;5070243;28;20504;-51
2022/04/28 11:52:25;;;;;;;10.38;6.55;;;;;;;;;;5070586;28;20028;-46
2022/04/28 11:54:56;;;;;;;8.23;5.63;;;;;;;;;;5070645;28;20036;-52
2022/04/28 11:57:22;;;;;;;10.00;6.50;;;;;;;;;;5070889;28;20028;-51
2022/04/28 11:59:48;;;;;;;6.95;5.25;;;;;;;;;;5070698;28;20360;-51
2022/04/28 12:02:28;;;;;;;6.03;4.80;;;;;;;;;;5070828;28;20020;-45
2022/04/28 12:04:54;;;;;;;8.77;4.68;;;;;;;;;;5070687;28;20067;-43
2022/04/28 12:07:21;;;;;;;5.97;4.60;;;;;;;;;;5070380;28;20028;-51
2022/04/28 12:15:19;;;;;;;5.13;4.55;;;;;;;;;;5072331;28;20510;-51
2022/04/28 12:20:59;;;;;;;;;;;;;;;;;;5074818;28;20102;-53
2022/04/28 12:23:32;;;;;;;5.20;4.47;;;;;;;;;;5074118;28;19920;-52
2022/04/28 12:26:03;;;;;;;6.80;4.40;;;;;;;;;;5073930;28;20044;-51
2022/04/28 12:28:30;;;;;;;9.10;6.20;;;;;;;;;;5074291;28;20429;-53
2022/04/28 12:30:55;;;;;;;8.35;5.00;;;;;;;;;;5074203;28;20391;-49
2022/04/28 12:33:21;;;;;;;6.70;4.85;;;;;;;;;;5074048;28;20032;-50
2022/04/28 12:35:47;;;;;;;9.27;5.30;;;;;;;;;;5073741;28;20037;-48
2022/04/28 12:38:12;;;;;;;10.65;5.30;;;;;;;;;;5073657;28;20036;-51
2022/04/28 12:40:40;;;;;;;7.82;4.70;;;;;;;;;;5074010;28;20028;-45
2022/04/28 12:43:06;;;;;;;5.57;4.30;;;;;;;;;;5073728;28;20021;-51
2022/04/28 12:45:40;;;;;;;4.78;3.67;;;;;;;;;;5073968;28;20077;-53
2022/04/28 12:48:21;;;;;;;7.28;4.60;;;;;;;;;;5073417;28;20029;-52
2022/04/28 12:50:48;;;;;;;7.00;4.30;;;;;;;;;;5073403;28;20049;-48
2022/04/28 12:53:34;;;;;;;5.93;4.45;;;;;;;;;;5073425;28;20028;-49
2022/04/28 12:56:08;;;;;;;5.28;3.85;;;;;;;;;;5073144;28;20484;-50
2022/04/28 12:58:40;;;;;;;7.25;4.70;;;;;;;;;;5073538;28;20056;-47
2022/04/28 13:01:18;;;;;;;5.97;4.88;;;;;;;;;;5073277;28;20059;-45
2022/04/28 13:04:11;;;;;;;15.05;4.90;;;;;;;;;;5073257;28;20123;-51
2022/04/28 13:06:46;;;;;;;5.05;4.50;;;;;;;;;;5073239;28;20047;-42
2022/04/28 13:09:15;;;;;;;9.63;4.72;;;;;;;;;;5073537;28;20029;-49
2022/04/28 13:11:42;;;;;;;7.60;4.40;;;;;;;;;;5072725;28;20040;-49
2022/04/28 13:14:10;;;;;;;13.90;4.90;;;;;;;;;;5073360;28;20033;-42
2022/04/28 13:16:36;;;;;;;7.28;4.10;;;;;;;;;;5073282;28;20032;-51
2022/04/28 13:19:04;;;;;;;5.40;4.05;;;;;;;;;;5073389;28;20024;-50
2022/04/28 13:21:29;;;;;;;5.20;4.57;;;;;;;;;;5073229;28;20032;-48
2022/04/28 13:23:55;;;;;;;6.03;4.78;;;;;;;;;;5073031;28;20093;-50
2022/04/28 13:26:22;;;;;;;6.85;4.60;;;;;;;;;;5072074;28;20115;-50
2022/04/28 13:28:49;;;;;;;5.13;3.88;;;;;;;;;;5072758;28;20032;-45
2022/04/28 13:31:15;;;;;;;5.70;4.28;;;;;;;;;;5072949;28;20121;-53
2022/04/28 13:33:41;;;;;;;4.25;3.85;;;;;;;;;;5072553;28;20468;-44
2022/04/28 13:36:08;;;;;;;5.57;4.80;;;;;;;;;;5072684;28;20028;-42
2022/04/28 13:38:34;;;;;;;6.05;4.50;;;;;;;;;;5072507;28;20059;-48
2022/04/28 13:41:00;;;;;;;5.68;5.10;;;;;;;;;;5072807;28;20021;-43
2022/04/28 13:43:25;;;;;;;5.70;5.05;;;;;;;;;;5072565;28;20036;-50
2022/04/28 13:45:51;;;;;;;6.22;5.30;;;;;;;;;;5072615;28;20028;-45
2022/04/28 13:48:19;;;;;;;5.30;4.45;;;;;;;;;;5072118;28;20032;-48
2022/04/28 13:50:46;;;;;;;10.80;4.75;;;;;;;;;;5072084;28;20507;-49
2022/04/28 13:53:12;;;;;;;6.22;5.28;;;;;;;;;;5071638;28;20051;-50
2022/04/28 13:55:39;;;;;;;6.43;4.90;;;;;;;;;;5072588;28;20024;-49
2022/04/28 13:58:05;;;;;;;7.30;5.30;;;;;;;;;;5072510;28;20021;-49
2022/04/28 14:00:31;;;;;;;9.27;5.40;;;;;;;;;;5072112;28;20039;-49
2022/04/28 14:02:57;;;;;;;7.80;3.80;;;;;;;;;;5072161;28;20028;-48
2022/04/28 14:05:22;;;;;;;4.93;3.70;;;;;;;;;;5071599;28;20035;-50
2022/04/28 14:07:48;;;;;;;4.63;3.13;;;;;;;;;;5072200;28;20028;-48
2022/04/28 14:10:14;;;;;;;4.13;3.60;;;;;;;;;;5071964;28;20506;-51
2022/04/28 14:12:40;;;;;;;5.47;3.92;;;;;;;;;;5071988;28;20089;-40
2022/04/28 14:15:07;;;;;;;3.83;2.35;;;;;;;;;;5071951;28;20028;-47
2022/04/28 14:17:34;;;;;;;3.42;3.13;;;;;;;;;;5072161;28;20032;-43
2022/04/28 14:20:00;;;;;;;5.93;3.40;;;;;;;;;;5071268;28;20035;-48
2022/04/28 14:22:26;;;;;;;4.40;2.22;;;;;;;;;;5071689;28;20030;-52
2022/04/28 14:24:51;;;;;;;3.88;3.35;;;;;;;;;;5071642;28;20040;-49
2022/04/28 14:27:17;;;;;;;4.82;2.95;;;;;;;;;;5071801;28;20016;-47
2022/04/28 14:29:43;;;;;;;5.43;4.53;;;;;;;;;;5071729;28;20028;-51
2022/04/28 14:32:09;;;;;;;6.20;4.40;;;;;;;;;;5071530;28;20472;-47
2022/04/28 14:34:35;;;;;;;4.50;3.95;;;;;;;;;;5071679;28;20064;-44
2022/04/28 14:37:03;;;;;;;6.35;4.32;;;;;;;;;;5071182;28;20025;-51
2022/04/28 14:39:29;;;;;;;6.53;4.53;;;;;;;;;;5071365;28;20492;-48
2022/04/28 14:41:55;;;;;;;3.90;3.33;;;;;;;;;;5071461;28;20050;-48
2022/04/28 14:44:20;;;;;;;7.22;3.83;;;;;;;;;;5070779;28;20059;-48
2022/04/28 14:46:46;;;;;;;2.85;2.60;;;;;;;;;;5053433;28;20077;-47
2022/04/28 14:54:40;;;;;;;14.38;8.75;;;;;;;;;;5071252;28;20028;-49
2022/04/28 14:57:07;;;;;;;18.00;3.83;;;;;;;;;;5071155;28;20487;-50
2022/04/28 14:59:33;;;;;;;5.05;4.00;;;;;;;;;;5070876;28;20056;-46
2022/04/28 15:01:58;;;;;;;8.00;5.45;;;;;;;;;;5071150;28;20435;-51
2022/04/28 15:04:24;;;;;;;5.65;4.57;;;;;;;;;;5070490;28;20040;-50
2022/04/28 15:06:49;;;;;;;5.45;4.82;;;;;;;;;;5071081;28;20064;-50
2022/04/28 15:09:14;;;;;;;6.63;5.28;;;;;;;;;;5070934;28;20024;-50
2022/04/28 15:11:40;;;;;;;9.45;5.65;;;;;;;;;;5070982;28;20031;-50
2022/04/28 15:14:06;;;;;;;5.97;4.32;;;;;;;;;;5071316;28;20040;-45
2022/04/28 15:16:32;;;;;;;6.00;4.70;;;;;;;;;;5070108;28;20039;-48
2022/04/28 15:18:57;;;;;;;8.93;5.22;;;;;;;;;;5070827;28;20024;-50
2022/04/28 15:21:23;;;;;;;5.95;4.55;;;;;;;;;;5071144;28;20079;-46
2022/04/28 15:23:49;;;;;;;9.27;6.00;;;;;;;;;;5070770;28;20024;-52